sensor_id;sensor_type;location;lat;lon;timestamp;temperature;humidity
29413;DHT22;16389;50.126;8.450;2022-07-23T00:01:07;20.90;99.90
29413;DHT22;16389;50.126;8.450;2022-07-23T00:03:33;20.90;99.90
29413;DHT22;16389;50.126;8.450;2022-07-23T00:05:58;20.80;99.90
29413;DHT22;16389;50.126;8.450;2022-07-23T00:08:24;20.70;99.90
29413;DHT22;16389;50.126;8.450;2022-07-23T00:10:49;20.60;99.90
29413;DHT22;16389;50.126;8.450;2022-07-23T00:13:15;20.60;99.90
29413;DHT22;16389;50.126;8.450;2022-07-23T00:15:40;20.60;99.90
29413;DHT22;16389;50.126;8.450;2022-07-23T00:18:06;20.60;99.90
29413;DHT22;16389;50.126;8.450;2022-07-23T00:20:31;20.50;99.90
29413;DHT22;16389;50.126;8.450;2022-07-23T00:22:57;20.50;99.90
29413;DHT22;16389;50.126;8.450;2022-07-23T00:25:22;20.50;99.90
29413;DHT22;16389;50.126;8.450;2022-07-23T00:27:48;20.50;99.90
29413;DHT22;16389;50.126;8.450;2022-07-23T00:30:14;20.40;99.90
29413;DHT22;16389;50.126;8.450;2022-07-23T00:32:46;20.50;99.90
29413;DHT22;16389;50.126;8.450;2022-07-23T00:35:12;20.50;99.90
29413;DHT22;16389;50.126;8.450;2022-07-23T00:37:37;20.50;99.90
29413;DHT22;16389;50.126;8.450;2022-07-23T00:40:03;20.50;99.90
29413;DHT22;16389;50.126;8.450;2022-07-23T00:42:30;20.50;99.90
29413;DHT22;16389;50.126;8.450;2022-07-23T00:44:56;20.40;99.90
29413;DHT22;16389;50.126;8.450;2022-07-23T00:47:21;20.40;99.90
29413;DHT22;16389;50.126;8.450;2022-07-23T00:49:47;20.40;99.90
29413;DHT22;16389;50.126;8.450;2022-07-23T00:52:12;20.30;99.90
29413;DHT22;16389;50.126;8.450;2022-07-23T00:54:38;20.20;99.90
29413;DHT22;16389;50.126;8.450;2022-07-23T00:57:04;20.10;99.90
29413;DHT22;16389;50.126;8.450;2022-07-23T00:59:29;20.10;99.90
29413;DHT22;16389;50.126;8.450;2022-07-23T01:01:55;20.10;99.90
29413;DHT22;16389;50.126;8.450;2022-07-23T01:04:20;20.00;99.90
29413;DHT22;16389;50.126;8.450;2022-07-23T01:06:46;20.00;99.90
29413;DHT22;16389;50.126;8.450;2022-07-23T01:09:11;20.00;99.90
29413;DHT22;16389;50.126;8.450;2022-07-23T01:11:37;20.00;99.90
29413;DHT22;16389;50.126;8.450;2022-07-23T01:14:16;20.00;99.90
29413;DHT22;16389;50.126;8.450;2022-07-23T01:16:42;20.00;99.90
29413;DHT22;16389;50.126;8.450;2022-07-23T01:19:07;20.10;99.90
29413;DHT22;16389;50.126;8.450;2022-07-23T01:21:37;20.10;99.90
29413;DHT22;16389;50.126;8.450;2022-07-23T01:24:03;20.20;99.90
29413;DHT22;16389;50.126;8.450;2022-07-23T01:26:29;20.20;99.90
29413;DHT22;16389;50.126;8.450;2022-07-23T01:28:55;20.30;99.90
29413;DHT22;16389;50.126;8.450;2022-07-23T01:31:20;20.30;99.90
29413;DHT22;16389;50.126;8.450;2022-07-23T01:33:46;20.30;99.90
29413;DHT22;16389;50.126;8.450;2022-07-23T01:36:11;20.30;99.90
29413;DHT22;16389;50.126;8.450;2022-07-23T01:38:37;20.30;99.90
29413;DHT22;16389;50.126;8.450;2022-07-23T01:41:02;20.40;99.90
29413;DHT22;16389;50.126;8.450;2022-07-23T01:43:28;20.50;99.90
29413;DHT22;16389;50.126;8.450;2022-07-23T01:45:53;20.50;99.90
29413;DHT22;16389;50.126;8.450;2022-07-23T01:48:19;20.50;99.90
29413;DHT22;16389;50.126;8.450;2022-07-23T01:50:46;20.50;99.90
29413;DHT22;16389;50.126;8.450;2022-07-23T01:53:12;20.50;99.90
29413;DHT22;16389;50.126;8.450;2022-07-23T01:55:37;20.40;99.90
29413;DHT22;16389;50.126;8.450;2022-07-23T01:58:03;20.50;99.90
29413;DHT22;16389;50.126;8.450;2022-07-23T02:00:28;20.40;99.90
29413;DHT22;16389;50.126;8.450;2022-07-23T02:02:54;20.50;99.90
29413;DHT22;16389;50.126;8.450;2022-07-23T02:05:19;20.40;99.90
29413;DHT22;16389;50.126;8.450;2022-07-23T02:07:45;20.40;99.90
29413;DHT22;16389;50.126;8.450;2022-07-23T02:10:11;20.40;99.90
29413;DHT22;16389;50.126;8.450;2022-07-23T02:12:36;20.30;99.90
29413;DHT22;16389;50.126;8.450;2022-07-23T02:15:02;20.20;99.90
29413;DHT22;16389;50.126;8.450;2022-07-23T02:17:27;20.10;99.90
29413;DHT22;16389;50.126;8.450;2022-07-23T02:19:53;20.10;99.90
29413;DHT22;16389;50.126;8.450;2022-07-23T02:22:18;20.10;99.90
29413;DHT22;16389;50.126;8.450;2022-07-23T02:24:44;20.00;99.90
29413;DHT22;16389;50.126;8.450;2022-07-23T02:27:09;20.00;99.90
29413;DHT22;16389;50.126;8.450;2022-07-23T02:29:35;20.10;99.90
29413;DHT22;16389;50.126;8.450;2022-07-23T02:32:00;20.00;99.90
29413;DHT22;16389;50.126;8.450;2022-07-23T02:34:26;20.00;99.90
29413;DHT22;16389;50.126;8.450;2022-07-23T02:36:51;20.00;99.90
29413;DHT22;16389;50.126;8.450;2022-07-23T02:39:17;20.00;99.90
29413;DHT22;16389;50.126;8.450;2022-07-23T02:41:42;20.10;99.90
29413;DHT22;16389;50.126;8.450;2022-07-23T02:44:08;20.00;99.90
29413;DHT22;16389;50.126;8.450;2022-07-23T02:46:33;20.00;99.90
29413;DHT22;16389;50.126;8.450;2022-07-23T02:48:59;20.00;99.90
29413;DHT22;16389;50.126;8.450;2022-07-23T02:51:24;20.00;99.90
29413;DHT22;16389;50.126;8.450;2022-07-23T02:53:50;20.00;99.90
29413;DHT22;16389;50.126;8.450;2022-07-23T02:56:15;20.00;99.90
29413;DHT22;16389;50.126;8.450;2022-07-23T02:58:40;20.00;99.90
29413;DHT22;16389;50.126;8.450;2022-07-23T03:01:06;20.00;99.90
29413;DHT22;16389;50.126;8.450;2022-07-23T03:03:31;20.00;99.90
29413;DHT22;16389;50.126;8.450;2022-07-23T03:05:58;20.00;99.90
29413;DHT22;16389;50.126;8.450;2022-07-23T03:08:23;20.00;99.90
29413;DHT22;16389;50.126;8.450;2022-07-23T03:10:49;19.90;99.90
29413;DHT22;16389;50.126;8.450;2022-07-23T03:13:14;19.90;99.90
29413;DHT22;16389;50.126;8.450;2022-07-23T03:15:40;19.90;99.90
29413;DHT22;16389;50.126;8.450;2022-07-23T03:18:05;19.90;99.90
29413;DHT22;16389;50.126;8.450;2022-07-23T03:20:31;19.90;99.90
29413;DHT22;16389;50.126;8.450;2022-07-23T03:22:56;19.80;99.90
29413;DHT22;16389;50.126;8.450;2022-07-23T03:25:22;19.70;99.90
29413;DHT22;16389;50.126;8.450;2022-07-23T03:27:47;19.70;99.90
29413;DHT22;16389;50.126;8.450;2022-07-23T03:30:13;19.60;99.90
29413;DHT22;16389;50.126;8.450;2022-07-23T03:32:38;19.60;99.90
29413;DHT22;16389;50.126;8.450;2022-07-23T03:35:04;19.50;99.90
29413;DHT22;16389;50.126;8.450;2022-07-23T03:37:30;19.50;99.90
29413;DHT22;16389;50.126;8.450;2022-07-23T03:39:55;19.50;99.90
29413;DHT22;16389;50.126;8.450;2022-07-23T03:42:21;19.60;99.90
29413;DHT22;16389;50.126;8.450;2022-07-23T03:44:46;19.60;99.90
29413;DHT22;16389;50.126;8.450;2022-07-23T03:47:12;19.60;99.90
29413;DHT22;16389;50.126;8.450;2022-07-23T03:49:37;19.60;99.90
29413;DHT22;16389;50.126;8.450;2022-07-23T03:52:03;19.70;99.90
29413;DHT22;16389;50.126;8.450;2022-07-23T03:54:28;19.70;99.90
29413;DHT22;16389;50.126;8.450;2022-07-23T03:56:54;19.70;99.90
29413;DHT22;16389;50.126;8.450;2022-07-23T03:59:20;19.70;99.90
29413;DHT22;16389;50.126;8.450;2022-07-23T04:01:46;19.70;99.90
29413;DHT22;16389;50.126;8.450;2022-07-23T04:04:11;19.70;99.90
29413;DHT22;16389;50.126;8.450;2022-07-23T04:06:37;19.70;99.90
29413;DHT22;16389;50.126;8.450;2022-07-23T04:09:02;19.70;99.90
29413;DHT22;16389;50.126;8.450;2022-07-23T04:11:28;19.70;99.90
29413;DHT22;16389;50.126;8.450;2022-07-23T04:13:54;19.70;99.90
29413;DHT22;16389;50.126;8.450;2022-07-23T04:16:19;19.60;99.90
29413;DHT22;16389;50.126;8.450;2022-07-23T04:18:44;19.60;99.90
29413;DHT22;16389;50.126;8.450;2022-07-23T04:21:10;19.60;99.90
29413;DHT22;16389;50.126;8.450;2022-07-23T04:23:35;19.60;99.90
29413;DHT22;16389;50.126;8.450;2022-07-23T04:26:01;19.60;99.90
29413;DHT22;16389;50.126;8.450;2022-07-23T04:28:26;19.60;99.90
29413;DHT22;16389;50.126;8.450;2022-07-23T04:30:52;19.60;99.90
29413;DHT22;16389;50.126;8.450;2022-07-23T04:33:17;19.60;99.90
29413;DHT22;16389;50.126;8.450;2022-07-23T04:35:43;19.60;99.90
29413;DHT22;16389;50.126;8.450;2022-07-23T04:38:08;19.70;99.90
29413;DHT22;16389;50.126;8.450;2022-07-23T04:40:34;19.70;99.90
29413;DHT22;16389;50.126;8.450;2022-07-23T04:42:59;19.70;99.90
29413;DHT22;16389;50.126;8.450;2022-07-23T04:45:25;19.80;99.90
29413;DHT22;16389;50.126;8.450;2022-07-23T04:47:51;19.80;99.90
29413;DHT22;16389;50.126;8.450;2022-07-23T04:50:16;19.80;99.90
29413;DHT22;16389;50.126;8.450;2022-07-23T04:52:46;20.00;99.90
29413;DHT22;16389;50.126;8.450;2022-07-23T04:55:12;20.00;99.90
29413;DHT22;16389;50.126;8.450;2022-07-23T04:57:37;20.00;99.90
29413;DHT22;16389;50.126;8.450;2022-07-23T05:00:03;20.10;99.90
29413;DHT22;16389;50.126;8.450;2022-07-23T05:02:29;20.10;99.90
29413;DHT22;16389;50.126;8.450;2022-07-23T05:04:54;20.10;99.90
29413;DHT22;16389;50.126;8.450;2022-07-23T05:07:20;20.10;99.90
29413;DHT22;16389;50.126;8.450;2022-07-23T05:09:45;20.10;99.90
29413;DHT22;16389;50.126;8.450;2022-07-23T05:12:11;20.10;99.90
29413;DHT22;16389;50.126;8.450;2022-07-23T05:14:36;20.10;99.90
29413;DHT22;16389;50.126;8.450;2022-07-23T05:17:02;20.10;99.90
29413;DHT22;16389;50.126;8.450;2022-07-23T05:19:28;20.00;99.90
29413;DHT22;16389;50.126;8.450;2022-07-23T05:21:53;20.00;99.90
29413;DHT22;16389;50.126;8.450;2022-07-23T05:24:18;20.00;99.90
29413;DHT22;16389;50.126;8.450;2022-07-23T05:26:44;19.90;99.90
29413;DHT22;16389;50.126;8.450;2022-07-23T05:29:09;20.00;99.90
29413;DHT22;16389;50.126;8.450;2022-07-23T05:31:35;19.90;99.90
29413;DHT22;16389;50.126;8.450;2022-07-23T05:34:01;19.90;99.90
29413;DHT22;16389;50.126;8.450;2022-07-23T05:36:26;20.00;99.90
29413;DHT22;16389;50.126;8.450;2022-07-23T05:38:52;19.90;99.90
29413;DHT22;16389;50.126;8.450;2022-07-23T05:41:17;19.80;99.90
29413;DHT22;16389;50.126;8.450;2022-07-23T05:43:43;19.80;99.90
29413;DHT22;16389;50.126;8.450;2022-07-23T05:46:09;19.80;99.90
29413;DHT22;16389;50.126;8.450;2022-07-23T05:48:34;19.80;99.90
29413;DHT22;16389;50.126;8.450;2022-07-23T05:51:00;19.70;99.90
29413;DHT22;16389;50.126;8.450;2022-07-23T05:53:26;19.70;99.90
29413;DHT22;16389;50.126;8.450;2022-07-23T05:55:51;19.70;99.90
29413;DHT22;16389;50.126;8.450;2022-07-23T05:58:17;19.70;99.90
29413;DHT22;16389;50.126;8.450;2022-07-23T06:00:42;19.70;99.90
29413;DHT22;16389;50.126;8.450;2022-07-23T06:03:08;19.70;99.90
29413;DHT22;16389;50.126;8.450;2022-07-23T06:05:33;19.70;99.90
29413;DHT22;16389;50.126;8.450;2022-07-23T06:07:59;19.70;99.90
29413;DHT22;16389;50.126;8.450;2022-07-23T06:10:24;19.80;99.90
29413;DHT22;16389;50.126;8.450;2022-07-23T06:12:50;19.80;99.90
29413;DHT22;16389;50.126;8.450;2022-07-23T06:15:15;19.90;99.90
29413;DHT22;16389;50.126;8.450;2022-07-23T06:17:41;20.00;99.90
29413;DHT22;16389;50.126;8.450;2022-07-23T06:20:07;20.10;99.90
29413;DHT22;16389;50.126;8.450;2022-07-23T06:22:33;20.20;99.90
29413;DHT22;16389;50.126;8.450;2022-07-23T06:24:59;20.30;99.90
29413;DHT22;16389;50.126;8.450;2022-07-23T06:27:24;20.40;99.90
29413;DHT22;16389;50.126;8.450;2022-07-23T06:29:50;20.50;99.90
29413;DHT22;16389;50.126;8.450;2022-07-23T06:32:15;20.50;99.90
29413;DHT22;16389;50.126;8.450;2022-07-23T06:34:41;20.50;99.90
29413;DHT22;16389;50.126;8.450;2022-07-23T06:37:07;20.60;99.90
29413;DHT22;16389;50.126;8.450;2022-07-23T06:39:33;20.70;99.90
29413;DHT22;16389;50.126;8.450;2022-07-23T06:41:58;20.80;99.90
29413;DHT22;16389;50.126;8.450;2022-07-23T06:44:24;20.80;99.90
29413;DHT22;16389;50.126;8.450;2022-07-23T06:46:50;20.90;99.90
29413;DHT22;16389;50.126;8.450;2022-07-23T06:49:15;20.90;99.90
29413;DHT22;16389;50.126;8.450;2022-07-23T06:51:41;21.00;99.90
29413;DHT22;16389;50.126;8.450;2022-07-23T06:54:06;21.00;99.90
29413;DHT22;16389;50.126;8.450;2022-07-23T06:56:32;21.10;99.90
29413;DHT22;16389;50.126;8.450;2022-07-23T06:58:58;21.10;99.90
29413;DHT22;16389;50.126;8.450;2022-07-23T07:01:23;21.10;99.90
29413;DHT22;16389;50.126;8.450;2022-07-23T07:03:49;21.20;99.90
29413;DHT22;16389;50.126;8.450;2022-07-23T07:06:15;21.30;99.90
29413;DHT22;16389;50.126;8.450;2022-07-23T07:08:40;21.40;99.90
29413;DHT22;16389;50.126;8.450;2022-07-23T07:11:08;21.50;99.90
29413;DHT22;16389;50.126;8.450;2022-07-23T07:13:34;21.60;99.90
29413;DHT22;16389;50.126;8.450;2022-07-23T07:15:59;21.70;99.90
29413;DHT22;16389;50.126;8.450;2022-07-23T07:18:25;21.80;99.90
29413;DHT22;16389;50.126;8.450;2022-07-23T07:20:50;21.90;99.90
29413;DHT22;16389;50.126;8.450;2022-07-23T07:23:16;22.00;99.90
29413;DHT22;16389;50.126;8.450;2022-07-23T07:25:42;22.00;99.90
29413;DHT22;16389;50.126;8.450;2022-07-23T07:28:07;21.90;99.90
29413;DHT22;16389;50.126;8.450;2022-07-23T07:30:33;21.90;99.90
29413;DHT22;16389;50.126;8.450;2022-07-23T07:32:58;22.10;99.90
29413;DHT22;16389;50.126;8.450;2022-07-23T07:35:24;22.20;99.90
29413;DHT22;16389;50.126;8.450;2022-07-23T07:37:50;22.40;99.90
29413;DHT22;16389;50.126;8.450;2022-07-23T07:40:16;22.50;99.90
29413;DHT22;16389;50.126;8.450;2022-07-23T07:42:47;22.60;99.90
29413;DHT22;16389;50.126;8.450;2022-07-23T07:45:13;22.60;99.90
29413;DHT22;16389;50.126;8.450;2022-07-23T07:47:40;22.90;99.90
29413;DHT22;16389;50.126;8.450;2022-07-23T07:50:06;23.10;99.90
29413;DHT22;16389;50.126;8.450;2022-07-23T07:52:33;23.20;99.90
29413;DHT22;16389;50.126;8.450;2022-07-23T07:54:58;23.40;99.90
29413;DHT22;16389;50.126;8.450;2022-07-23T07:57:24;23.50;99.90
29413;DHT22;16389;50.126;8.450;2022-07-23T07:59:49;23.70;99.90
29413;DHT22;16389;50.126;8.450;2022-07-23T08:02:15;23.90;99.90
29413;DHT22;16389;50.126;8.450;2022-07-23T08:04:41;24.10;99.90
29413;DHT22;16389;50.126;8.450;2022-07-23T08:07:06;24.20;99.90
29413;DHT22;16389;50.126;8.450;2022-07-23T08:09:32;24.40;99.90
29413;DHT22;16389;50.126;8.450;2022-07-23T08:11:57;24.60;99.90
29413;DHT22;16389;50.126;8.450;2022-07-23T08:14:23;24.70;99.90
29413;DHT22;16389;50.126;8.450;2022-07-23T08:16:49;24.80;99.90
29413;DHT22;16389;50.126;8.450;2022-07-23T08:19:14;24.80;99.90
29413;DHT22;16389;50.126;8.450;2022-07-23T08:21:40;24.80;99.90
29413;DHT22;16389;50.126;8.450;2022-07-23T08:24:05;24.70;99.90
29413;DHT22;16389;50.126;8.450;2022-07-23T08:26:31;24.60;99.90
29413;DHT22;16389;50.126;8.450;2022-07-23T08:28:57;24.60;99.90
29413;DHT22;16389;50.126;8.450;2022-07-23T08:31:22;24.60;99.90
29413;DHT22;16389;50.126;8.450;2022-07-23T08:33:48;24.60;99.90
29413;DHT22;16389;50.126;8.450;2022-07-23T08:36:13;24.80;99.90
29413;DHT22;16389;50.126;8.450;2022-07-23T08:38:39;25.10;99.90
29413;DHT22;16389;50.126;8.450;2022-07-23T08:41:07;25.30;99.90
29413;DHT22;16389;50.126;8.450;2022-07-23T08:43:33;25.50;99.90
29413;DHT22;16389;50.126;8.450;2022-07-23T08:46:02;25.40;99.90
29413;DHT22;16389;50.126;8.450;2022-07-23T08:48:29;25.40;99.90
29413;DHT22;16389;50.126;8.450;2022-07-23T08:50:57;25.40;99.90
29413;DHT22;16389;50.126;8.450;2022-07-23T08:53:25;25.40;99.90
29413;DHT22;16389;50.126;8.450;2022-07-23T08:55:53;25.50;99.90
29413;DHT22;16389;50.126;8.450;2022-07-23T08:58:19;25.70;99.90
29413;DHT22;16389;50.126;8.450;2022-07-23T09:00:46;25.90;99.90
29413;DHT22;16389;50.126;8.450;2022-07-23T09:03:17;26.00;99.90
29413;DHT22;16389;50.126;8.450;2022-07-23T09:05:43;26.00;99.90
29413;DHT22;16389;50.126;8.450;2022-07-23T09:08:17;26.20;99.90
29413;DHT22;16389;50.126;8.450;2022-07-23T09:10:51;26.30;99.90
29413;DHT22;16389;50.126;8.450;2022-07-23T09:13:40;26.30;99.90
29413;DHT22;16389;50.126;8.450;2022-07-23T09:16:11;26.00;99.90
29413;DHT22;16389;50.126;8.450;2022-07-23T09:18:52;25.90;99.90
29413;DHT22;16389;50.126;8.450;2022-07-23T09:21:22;25.80;99.90
29413;DHT22;16389;50.126;8.450;2022-07-23T09:26:24;25.60;99.90
29413;DHT22;16389;50.126;8.450;2022-07-23T09:28:57;25.50;99.90
29413;DHT22;16389;50.126;8.450;2022-07-23T09:31:24;25.60;99.90
29413;DHT22;16389;50.126;8.450;2022-07-23T09:33:50;25.80;99.90
29413;DHT22;16389;50.126;8.450;2022-07-23T09:36:27;25.80;99.90
29413;DHT22;16389;50.126;8.450;2022-07-23T09:38:53;25.80;99.20
29413;DHT22;16389;50.126;8.450;2022-07-23T09:41:18;26.10;99.00
29413;DHT22;16389;50.126;8.450;2022-07-23T09:43:44;26.60;99.00
29413;DHT22;16389;50.126;8.450;2022-07-23T09:46:16;27.10;99.80
29413;DHT22;16389;50.126;8.450;2022-07-23T09:48:42;27.50;98.10
29413;DHT22;16389;50.126;8.450;2022-07-23T09:51:07;27.60;95.40
29413;DHT22;16389;50.126;8.450;2022-07-23T09:53:33;27.80;94.70
29413;DHT22;16389;50.126;8.450;2022-07-23T09:56:00;27.90;94.20
29413;DHT22;16389;50.126;8.450;2022-07-23T09:58:26;28.20;92.00
29413;DHT22;16389;50.126;8.450;2022-07-23T10:00:56;28.30;91.50
29413;DHT22;16389;50.126;8.450;2022-07-23T10:03:23;28.50;92.20
29413;DHT22;16389;50.126;8.450;2022-07-23T10:05:50;28.80;90.90
29413;DHT22;16389;50.126;8.450;2022-07-23T10:08:18;29.00;90.80
29413;DHT22;16389;50.126;8.450;2022-07-23T10:10:46;29.00;90.40
29413;DHT22;16389;50.126;8.450;2022-07-23T10:13:14;28.80;89.20
29413;DHT22;16389;50.126;8.450;2022-07-23T10:15:51;28.60;89.30
29413;DHT22;16389;50.126;8.450;2022-07-23T10:18:17;28.50;89.40
29413;DHT22;16389;50.126;8.450;2022-07-23T10:20:43;28.40;90.30
29413;DHT22;16389;50.126;8.450;2022-07-23T10:26:17;29.00;88.30
29413;DHT22;16389;50.126;8.450;2022-07-23T10:37:12;30.50;80.50
29413;DHT22;16389;50.126;8.450;2022-07-23T10:39:39;30.80;77.30
29413;DHT22;16389;50.126;8.450;2022-07-23T10:42:16;31.20;79.30
29413;DHT22;16389;50.126;8.450;2022-07-23T10:44:47;31.70;76.80
29413;DHT22;16389;50.126;8.450;2022-07-23T10:47:25;32.00;75.40
29413;DHT22;16389;50.126;8.450;2022-07-23T10:50:27;32.50;77.70
29413;DHT22;16389;50.126;8.450;2022-07-23T10:58:03;33.20;72.00
29413;DHT22;16389;50.126;8.450;2022-07-23T11:00:31;33.40;70.80
29413;DHT22;16389;50.126;8.450;2022-07-23T11:02:59;33.80;68.50
29413;DHT22;16389;50.126;8.450;2022-07-23T11:05:38;34.10;67.70
29413;DHT22;16389;50.126;8.450;2022-07-23T11:10:49;33.90;66.40
29413;DHT22;16389;50.126;8.450;2022-07-23T11:24:07;35.00;60.50
29413;DHT22;16389;50.126;8.450;2022-07-23T11:26:47;35.20;60.80
29413;DHT22;16389;50.126;8.450;2022-07-23T11:32:00;36.10;59.20
29413;DHT22;16389;50.126;8.450;2022-07-23T11:37:05;36.70;58.40
29413;DHT22;16389;50.126;8.450;2022-07-23T11:39:32;36.40;58.20
29413;DHT22;16389;50.126;8.450;2022-07-23T11:41:59;36.30;58.30
29413;DHT22;16389;50.126;8.450;2022-07-23T11:47:06;35.10;59.80
29413;DHT22;16389;50.126;8.450;2022-07-23T11:49:33;35.60;59.70
29413;DHT22;16389;50.126;8.450;2022-07-23T11:52:11;36.10;59.00
29413;DHT22;16389;50.126;8.450;2022-07-23T11:54:55;36.70;59.00
29413;DHT22;16389;50.126;8.450;2022-07-23T11:57:33;36.90;58.10
29413;DHT22;16389;50.126;8.450;2022-07-23T12:02:37;37.10;57.90
29413;DHT22;16389;50.126;8.450;2022-07-23T12:05:04;37.40;57.50
29413;DHT22;16389;50.126;8.450;2022-07-23T12:07:41;36.60;56.40
29413;DHT22;16389;50.126;8.450;2022-07-23T12:10:15;35.70;58.80
29413;DHT22;16389;50.126;8.450;2022-07-23T12:12:50;35.90;58.30
29413;DHT22;16389;50.126;8.450;2022-07-23T12:15:19;35.60;58.90
29413;DHT22;16389;50.126;8.450;2022-07-23T12:17:47;35.50;59.20
29413;DHT22;16389;50.126;8.450;2022-07-23T12:20:15;34.70;59.30
29413;DHT22;16389;50.126;8.450;2022-07-23T12:22:47;33.60;60.50
29413;DHT22;16389;50.126;8.450;2022-07-23T12:25:18;33.20;63.30
29413;DHT22;16389;50.126;8.450;2022-07-23T12:27:45;32.70;63.00
29413;DHT22;16389;50.126;8.450;2022-07-23T12:32:45;33.90;63.80
29413;DHT22;16389;50.126;8.450;2022-07-23T12:35:12;34.10;63.00
29413;DHT22;16389;50.126;8.450;2022-07-23T12:37:40;34.00;61.80
29413;DHT22;16389;50.126;8.450;2022-07-23T12:43:25;34.80;60.80
29413;DHT22;16389;50.126;8.450;2022-07-23T12:48:22;35.40;59.10
29413;DHT22;16389;50.126;8.450;2022-07-23T12:50:53;34.80;57.20
29413;DHT22;16389;50.126;8.450;2022-07-23T12:53:25;35.10;62.00
29413;DHT22;16389;50.126;8.450;2022-07-23T12:56:08;36.10;59.60
29413;DHT22;16389;50.126;8.450;2022-07-23T13:01:34;36.50;57.70
29413;DHT22;16389;50.126;8.450;2022-07-23T13:04:13;35.80;57.70
29413;DHT22;16389;50.126;8.450;2022-07-23T13:06:42;36.30;58.90
29413;DHT22;16389;50.126;8.450;2022-07-23T13:09:15;37.20;56.60
29413;DHT22;16389;50.126;8.450;2022-07-23T13:11:42;37.90;54.90
29413;DHT22;16389;50.126;8.450;2022-07-23T13:14:08;38.20;54.10
29413;DHT22;16389;50.126;8.450;2022-07-23T13:16:34;38.70;53.90
29413;DHT22;16389;50.126;8.450;2022-07-23T13:19:00;38.70;54.00
29413;DHT22;16389;50.126;8.450;2022-07-23T13:21:28;38.60;52.30
29413;DHT22;16389;50.126;8.450;2022-07-23T13:23:54;38.80;53.80
29413;DHT22;16389;50.126;8.450;2022-07-23T13:26:20;39.00;53.30
29413;DHT22;16389;50.126;8.450;2022-07-23T13:28:46;39.30;53.30
29413;DHT22;16389;50.126;8.450;2022-07-23T13:31:12;40.30;52.70
29413;DHT22;16389;50.126;8.450;2022-07-23T13:33:38;41.00;52.30
29413;DHT22;16389;50.126;8.450;2022-07-23T13:36:04;41.20;48.60
29413;DHT22;16389;50.126;8.450;2022-07-23T13:38:30;40.40;49.90
29413;DHT22;16389;50.126;8.450;2022-07-23T13:40:55;38.40;50.30
29413;DHT22;16389;50.126;8.450;2022-07-23T13:43:23;37.40;52.50
29413;DHT22;16389;50.126;8.450;2022-07-23T13:45:50;36.50;54.10
29413;DHT22;16389;50.126;8.450;2022-07-23T13:48:16;37.00;54.10
29413;DHT22;16389;50.126;8.450;2022-07-23T13:50:43;37.90;53.70
29413;DHT22;16389;50.126;8.450;2022-07-23T13:53:11;38.80;52.40
29413;DHT22;16389;50.126;8.450;2022-07-23T13:55:38;39.60;52.60
29413;DHT22;16389;50.126;8.450;2022-07-23T13:58:05;40.30;50.00
29413;DHT22;16389;50.126;8.450;2022-07-23T14:00:32;41.40;49.70
29413;DHT22;16389;50.126;8.450;2022-07-23T14:02:59;41.60;48.80
29413;DHT22;16389;50.126;8.450;2022-07-23T14:05:25;41.30;48.90
29413;DHT22;16389;50.126;8.450;2022-07-23T14:07:51;40.30;48.00
29413;DHT22;16389;50.126;8.450;2022-07-23T14:10:20;39.20;50.50
29413;DHT22;16389;50.126;8.450;2022-07-23T14:12:47;38.60;51.30
29413;DHT22;16389;50.126;8.450;2022-07-23T14:15:14;38.60;50.10
29413;DHT22;16389;50.126;8.450;2022-07-23T14:17:42;38.50;50.70
29413;DHT22;16389;50.126;8.450;2022-07-23T14:20:09;38.10;50.60
29413;DHT22;16389;50.126;8.450;2022-07-23T14:22:36;37.50;50.70
29413;DHT22;16389;50.126;8.450;2022-07-23T14:25:02;36.90;52.20
29413;DHT22;16389;50.126;8.450;2022-07-23T14:27:28;35.60;52.50
29413;DHT22;16389;50.126;8.450;2022-07-23T14:29:54;34.60;54.40
29413;DHT22;16389;50.126;8.450;2022-07-23T14:32:20;33.90;55.30
29413;DHT22;16389;50.126;8.450;2022-07-23T14:34:46;34.50;55.40
29413;DHT22;16389;50.126;8.450;2022-07-23T14:37:12;35.30;53.90
29413;DHT22;16389;50.126;8.450;2022-07-23T14:39:44;35.40;54.10
29413;DHT22;16389;50.126;8.450;2022-07-23T14:42:10;35.00;53.10
29413;DHT22;16389;50.126;8.450;2022-07-23T14:44:37;35.20;55.50
29413;DHT22;16389;50.126;8.450;2022-07-23T14:47:04;35.60;53.30
29413;DHT22;16389;50.126;8.450;2022-07-23T14:49:31;35.70;52.80
29413;DHT22;16389;50.126;8.450;2022-07-23T14:51:57;35.40;54.10
29413;DHT22;16389;50.126;8.450;2022-07-23T14:54:23;35.00;53.00
29413;DHT22;16389;50.126;8.450;2022-07-23T14:56:51;35.00;54.20
29413;DHT22;16389;50.126;8.450;2022-07-23T14:59:17;34.50;53.00
29413;DHT22;16389;50.126;8.450;2022-07-23T15:01:42;34.70;54.30
29413;DHT22;16389;50.126;8.450;2022-07-23T15:04:08;35.30;53.10
29413;DHT22;16389;50.126;8.450;2022-07-23T15:06:34;35.80;54.70
29413;DHT22;16389;50.126;8.450;2022-07-23T15:08:59;36.40;52.70
29413;DHT22;16389;50.126;8.450;2022-07-23T15:11:27;37.30;50.50
29413;DHT22;16389;50.126;8.450;2022-07-23T15:13:54;37.10;49.20
29413;DHT22;16389;50.126;8.450;2022-07-23T15:16:20;36.30;50.10
29413;DHT22;16389;50.126;8.450;2022-07-23T15:18:46;35.90;52.40
29413;DHT22;16389;50.126;8.450;2022-07-23T15:21:11;36.70;52.20
29413;DHT22;16389;50.126;8.450;2022-07-23T15:23:37;37.60;51.00
29413;DHT22;16389;50.126;8.450;2022-07-23T15:26:05;38.40;49.70
29413;DHT22;16389;50.126;8.450;2022-07-23T15:28:31;39.20;48.80
29413;DHT22;16389;50.126;8.450;2022-07-23T15:30:57;39.80;47.80
29413;DHT22;16389;50.126;8.450;2022-07-23T15:33:23;40.10;46.40
29413;DHT22;16389;50.126;8.450;2022-07-23T15:35:49;40.50;46.10
29413;DHT22;16389;50.126;8.450;2022-07-23T15:38:15;40.90;46.70
29413;DHT22;16389;50.126;8.450;2022-07-23T15:40:41;41.10;46.00
29413;DHT22;16389;50.126;8.450;2022-07-23T15:43:06;41.30;44.60
29413;DHT22;16389;50.126;8.450;2022-07-23T15:45:32;41.20;45.80
29413;DHT22;16389;50.126;8.450;2022-07-23T15:47:58;41.30;44.80
29413;DHT22;16389;50.126;8.450;2022-07-23T15:50:24;40.90;45.60
29413;DHT22;16389;50.126;8.450;2022-07-23T15:52:50;40.70;44.90
29413;DHT22;16389;50.126;8.450;2022-07-23T15:55:15;40.50;45.00
29413;DHT22;16389;50.126;8.450;2022-07-23T15:57:41;40.80;45.30
29413;DHT22;16389;50.126;8.450;2022-07-23T16:00:07;41.00;44.90
29413;DHT22;16389;50.126;8.450;2022-07-23T16:02:34;40.70;45.10
29413;DHT22;16389;50.126;8.450;2022-07-23T16:05:00;40.40;45.70
29413;DHT22;16389;50.126;8.450;2022-07-23T16:07:26;39.60;44.70
29413;DHT22;16389;50.126;8.450;2022-07-23T16:09:52;39.30;46.20
29413;DHT22;16389;50.126;8.450;2022-07-23T16:12:18;38.60;45.60
29413;DHT22;16389;50.126;8.450;2022-07-23T16:14:43;38.40;47.60
29413;DHT22;16389;50.126;8.450;2022-07-23T16:17:10;38.20;47.10
29413;DHT22;16389;50.126;8.450;2022-07-23T16:19:36;38.10;46.50
29413;DHT22;16389;50.126;8.450;2022-07-23T16:22:02;37.90;47.30